createdAt,value
2024-02-06T00:00:15.574Z,98885.72
2024-02-06T00:02:48.577Z,98904.00
2024-02-06T00:05:20.648Z,98876.41
2024-02-06T00:07:53.222Z,98909.16
2024-02-06T00:10:26.617Z,98901.69
2024-02-06T00:12:59.358Z,98871.91
2024-02-06T00:15:31.328Z,98851.25
2024-02-06T00:18:04.244Z,98889.25
2024-02-06T00:20:36.722Z,98876.97
2024-02-06T00:23:09.564Z,98880.91
2024-02-06T00:25:41.538Z,98835.84
2024-02-06T00:28:14.072Z,98859.47
2024-02-06T00:30:46.134Z,98868.19
2024-02-06T00:36:45.827Z,98892.66
2024-02-06T00:39:18.197Z,98877.81
2024-02-06T00:41:50.204Z,98871.28
2024-02-06T00:44:23.005Z,98881.84
2024-02-06T00:46:54.945Z,98864.19
2024-02-06T00:49:27.580Z,98870.66
2024-02-06T00:51:59.622Z,98860.31
2024-02-06T00:54:31.998Z,98870.59
2024-02-06T00:57:04.621Z,98889.00
2024-02-06T00:59:37.160Z,98849.72
2024-02-06T01:02:09.270Z,98847.00
2024-02-06T01:04:41.969Z,98867.09
2024-02-06T01:07:14.149Z,98879.44
2024-02-06T01:09:49.830Z,98869.91
2024-02-06T01:12:22.015Z,98884.25
2024-02-06T01:14:56.633Z,98870.78
2024-02-06T01:17:29.106Z,98893.34
2024-02-06T01:20:01.937Z,98887.44
2024-02-06T01:22:34.089Z,98875.53
2024-02-06T01:25:06.773Z,98866.97
2024-02-06T01:27:39.437Z,98902.06
2024-02-06T01:30:13.150Z,98883.53
2024-02-06T01:32:45.508Z,98891.91
2024-02-06T01:35:18.714Z,98882.50
2024-02-06T01:37:50.706Z,98860.09
2024-02-06T01:40:23.139Z,98882.38
2024-02-06T01:42:55.591Z,98881.84
2024-02-06T01:45:28.392Z,98884.41
2024-02-06T01:48:00.927Z,98866.84
2024-02-06T01:50:33.492Z,98866.09
2024-02-06T01:53:07.258Z,98856.13
2024-02-06T01:55:40.097Z,98866.34
2024-02-06T01:58:12.487Z,98878.09
2024-02-06T02:00:45.840Z,98889.13
2024-02-06T02:03:18.282Z,98887.34
2024-02-06T02:05:51.424Z,98861.16
2024-02-06T02:08:24.188Z,98889.81
2024-02-06T02:10:56.626Z,98884.44
2024-02-06T02:13:28.620Z,98864.09
2024-02-06T02:16:01.476Z,98897.47
2024-02-06T02:18:37.729Z,98860.69
2024-02-06T02:21:14.409Z,98846.03
2024-02-06T02:23:47.153Z,98874.44
2024-02-06T02:26:19.935Z,98845.63
2024-02-06T02:28:52.476Z,98860.91
2024-02-06T02:31:26.429Z,98853.44
2024-02-06T02:33:58.935Z,98863.91
2024-02-06T02:36:31.749Z,98836.19
2024-02-06T02:39:03.756Z,98851.03
2024-02-06T02:41:36.941Z,98852.69
2024-02-06T02:44:09.271Z,98846.63
2024-02-06T02:46:42.165Z,98849.38
2024-02-06T02:49:15.125Z,98833.59
2024-02-06T02:51:47.453Z,98836.16
2024-02-06T02:54:20.989Z,98863.53
2024-02-06T02:56:53.776Z,98853.63
2024-02-06T02:59:25.689Z,98848.69
2024-02-06T03:01:58.125Z,98841.34
2024-02-06T03:04:30.159Z,98847.47
2024-02-06T03:07:02.561Z,98838.41
2024-02-06T03:09:36.500Z,98856.88
2024-02-06T03:12:09.026Z,98837.28
2024-02-06T03:14:41.122Z,98841.03
2024-02-06T03:20:27.304Z,98845.25
2024-02-06T03:23:01.085Z,98856.28
2024-02-06T03:25:33.601Z,98871.59
2024-02-06T03:28:06.256Z,98860.28
2024-02-06T03:30:38.360Z,98867.41
2024-02-06T03:33:11.244Z,98867.78
2024-02-06T03:35:44.689Z,98884.63
2024-02-06T03:38:19.992Z,98853.19
2024-02-06T03:40:51.953Z,98879.97
2024-02-06T03:43:24.899Z,98885.53
2024-02-06T03:45:56.881Z,98877.97
2024-02-06T03:48:29.489Z,98864.66
2024-02-06T03:51:04.536Z,98882.50
2024-02-06T03:53:37.302Z,98893.53
2024-02-06T03:56:09.705Z,98899.47
2024-02-06T03:58:42.269Z,98879.19
2024-02-06T04:01:14.406Z,98871.78
2024-02-06T04:03:47.201Z,98881.78
2024-02-06T04:06:20.488Z,98872.41
2024-02-06T04:08:53.066Z,98875.53
2024-02-06T04:11:25.508Z,98896.09
2024-02-06T04:13:57.886Z,98892.53
2024-02-06T04:16:29.940Z,98883.72
2024-02-06T04:19:02.451Z,98889.66
2024-02-06T04:21:34.869Z,98856.16
2024-02-06T04:24:10.134Z,98876.13
2024-02-06T04:26:42.283Z,98851.34
2024-02-06T04:29:14.970Z,98880.88
2024-02-06T04:31:49.252Z,98885.09
2024-02-06T04:34:21.837Z,98869.22
2024-02-06T04:36:53.891Z,98896.25
2024-02-06T04:39:26.304Z,98880.19
2024-02-06T04:41:58.645Z,98900.59
2024-02-06T04:44:31.494Z,98906.25
2024-02-06T04:47:03.530Z,98888.00
2024-02-06T04:49:36.297Z,98894.56
2024-02-06T04:52:08.519Z,98904.31
2024-02-06T04:54:41.314Z,98908.50
2024-02-06T04:57:13.342Z,98885.69
2024-02-06T04:59:45.810Z,98891.06
2024-02-06T05:02:19.328Z,98909.38
2024-02-06T05:04:53.525Z,98906.72
2024-02-06T05:07:25.746Z,98900.91
2024-02-06T05:09:58.237Z,98906.66
2024-02-06T05:12:30.273Z,98896.25
2024-02-06T05:15:03.058Z,98930.69
2024-02-06T05:17:35.480Z,98924.19
2024-02-06T05:20:11.956Z,98882.28
2024-02-06T05:22:44.707Z,98903.53
2024-02-06T05:25:17.900Z,98908.50
2024-02-06T05:27:51.466Z,98892.56
2024-02-06T05:30:24.832Z,98905.00
2024-02-06T05:32:56.855Z,98899.50
2024-02-06T05:35:29.674Z,98919.06
2024-02-06T05:38:02.021Z,98922.94
2024-02-06T05:40:34.657Z,98906.38
2024-02-06T05:43:06.929Z,98892.66
2024-02-06T05:46:21.923Z,98904.69
2024-02-06T05:48:55.462Z,98905.19
2024-02-06T05:51:27.959Z,98918.47
2024-02-06T05:54:00.376Z,98893.28
2024-02-06T05:56:33.107Z,98897.69
2024-02-06T05:59:05.584Z,98875.09
2024-02-06T06:01:38.202Z,98907.38
2024-02-06T06:04:11.111Z,98906.72
2024-02-06T06:06:43.980Z,98894.25
2024-02-06T06:09:16.055Z,98901.25
2024-02-06T06:11:48.401Z,98893.78
2024-02-06T06:14:20.792Z,98895.88
2024-02-06T06:16:55.244Z,98871.50
2024-02-06T06:19:28.469Z,98906.81
2024-02-06T06:22:08.276Z,98869.97
2024-02-06T06:24:40.376Z,98886.13
2024-02-06T06:27:13.427Z,98901.94
2024-02-06T06:29:48.681Z,98898.34
2024-02-06T06:32:21.933Z,98881.13
2024-02-06T06:34:54.060Z,98914.41
2024-02-06T06:37:26.520Z,98896.22
2024-02-06T06:39:59.128Z,98910.00
2024-02-06T06:48:00.854Z,98930.69
2024-02-06T06:50:34.163Z,98943.03
2024-02-06T06:53:08.817Z,98933.47
2024-02-06T06:55:42.292Z,98941.81
2024-02-06T06:58:14.611Z,98928.31
2024-02-06T07:00:47.394Z,98922.81
2024-02-06T07:03:20.825Z,98913.41
2024-02-06T07:05:55.465Z,98914.69
2024-02-06T07:08:34.906Z,98921.00
2024-02-06T07:11:08.359Z,98929.88
2024-02-06T07:13:41.038Z,98934.00
2024-02-06T07:16:14.077Z,98944.91
2024-02-06T07:18:46.323Z,98941.03
2024-02-06T07:21:18.736Z,98954.50
2024-02-06T07:23:51.072Z,98945.16
2024-02-06T07:26:23.936Z,98969.91
2024-02-06T07:28:56.572Z,98955.31
2024-02-06T07:31:29.169Z,98971.38
2024-02-06T07:34:01.797Z,98951.88
2024-02-06T07:36:34.706Z,98972.09
2024-02-06T07:39:07.939Z,98979.53
2024-02-06T07:41:41.475Z,98963.47
2024-02-06T07:44:13.877Z,98982.94
2024-02-06T07:46:46.914Z,98973.03
2024-02-06T07:49:19.688Z,98974.69
2024-02-06T07:51:52.795Z,98990.88
2024-02-06T07:54:25.259Z,98979.09
2024-02-06T07:56:58.213Z,98990.06
2024-02-06T07:59:31.060Z,98971.78
2024-02-06T08:02:03.830Z,98945.44
2024-02-06T08:04:36.390Z,98972.47
2024-02-06T08:07:09.082Z,98952.16
2024-02-06T08:09:41.838Z,98971.69
2024-02-06T08:12:15.656Z,98982.19
2024-02-06T08:14:48.519Z,98986.78
2024-02-06T08:17:22.797Z,98983.72
2024-02-06T08:19:55.506Z,98976.28
2024-02-06T08:22:27.992Z,98959.19
2024-02-06T08:25:00.092Z,98991.50
2024-02-06T08:27:32.617Z,98981.00
2024-02-06T08:30:06.823Z,98969.16
2024-02-06T08:32:39.386Z,98974.97
2024-02-06T08:35:11.498Z,98950.16
2024-02-06T08:37:44.080Z,98969.56
2024-02-06T08:40:17.253Z,98986.94
2024-02-06T08:43:02.923Z,98964.34
2024-02-06T08:45:35.929Z,98981.94
2024-02-06T08:48:09.715Z,98959.66
2024-02-06T08:50:44.203Z,98974.22
2024-02-06T08:53:18.167Z,98988.88
2024-02-06T08:55:50.741Z,98976.84
2024-02-06T08:58:24.716Z,98952.00
2024-02-06T09:00:58.307Z,98984.34
2024-02-06T09:03:30.828Z,98982.72
2024-02-06T09:06:03.041Z,98966.34
2024-02-06T09:08:35.730Z,98964.38
2024-02-06T09:11:09.139Z,98965.66
2024-02-06T09:13:41.607Z,98970.00
2024-02-06T09:16:13.672Z,98968.28
2024-02-06T09:18:46.439Z,98964.13
2024-02-06T09:21:18.742Z,98968.34
2024-02-06T09:23:51.336Z,98952.00
2024-02-06T09:26:23.446Z,98951.59
2024-02-06T09:28:56.090Z,98957.84
2024-02-06T09:31:28.197Z,98955.81
2024-02-06T09:34:02.135Z,98958.06
2024-02-06T09:36:34.793Z,98972.63
2024-02-06T09:39:11.557Z,98956.19
2024-02-06T09:41:46.899Z,98976.66
2024-02-06T09:44:19.050Z,98990.38
2024-02-06T09:46:53.258Z,98974.06
2024-02-06T09:49:25.758Z,98975.81
2024-02-06T09:51:58.764Z,98966.28
2024-02-06T09:54:34.260Z,98954.13
2024-02-06T09:57:08.063Z,98957.44
2024-02-06T09:59:41.452Z,98984.63
2024-02-06T10:02:18.293Z,98984.34
2024-02-06T10:04:54.574Z,98988.84
2024-02-06T10:07:27.480Z,98992.03
2024-02-06T10:10:00.946Z,98991.03
2024-02-06T10:12:32.988Z,98965.41
2024-02-06T10:15:06.070Z,98977.25
2024-02-06T10:17:42.139Z,98971.13
2024-02-06T10:20:15.233Z,98970.66
2024-02-06T10:22:48.528Z,98969.69
2024-02-06T10:25:21.062Z,98963.81
2024-02-06T10:27:59.754Z,98969.56
2024-02-06T10:30:35.854Z,98979.09
2024-02-06T10:33:15.779Z,98980.63
2024-02-06T10:35:49.442Z,98974.38
2024-02-06T10:38:21.901Z,98962.00
2024-02-06T10:41:05.746Z,98969.66
2024-02-06T10:43:47.420Z,98973.34
2024-02-06T10:46:25.503Z,98940.38
2024-02-06T10:49:06.947Z,98945.09
2024-02-06T10:51:39.508Z,98937.13
2024-02-06T10:54:11.892Z,98946.59
2024-02-06T10:56:54.047Z,98970.25
2024-02-06T10:59:55.136Z,98957.03
2024-02-06T11:02:35.329Z,98950.16
2024-02-06T11:05:22.853Z,98947.41
2024-02-06T11:08:03.490Z,98938.44
2024-02-06T11:10:45.725Z,98928.78
2024-02-06T11:13:26.626Z,98908.25
2024-02-06T11:16:04.174Z,98903.53
2024-02-06T11:19:01.260Z,98911.28
2024-02-06T11:21:45.250Z,98886.41
2024-02-06T11:24:21.390Z,98900.22
2024-02-06T11:26:53.927Z,98897.00
2024-02-06T11:29:26.896Z,98867.47
2024-02-06T11:31:59.393Z,98891.78
2024-02-06T11:34:32.175Z,98884.22
2024-02-06T11:37:04.339Z,98875.91
2024-02-06T11:39:38.252Z,98876.28
2024-02-06T11:42:10.803Z,98879.72
2024-02-06T11:44:44.303Z,98875.28
2024-02-06T11:47:22.716Z,98877.03
2024-02-06T11:49:56.763Z,98875.88
2024-02-06T11:52:29.281Z,98885.09
2024-02-06T11:55:02.100Z,98863.59
2024-02-06T11:57:34.915Z,98860.31
2024-02-06T12:00:11.389Z,98861.63
2024-02-06T12:02:52.792Z,98859.09
2024-02-06T12:05:26.444Z,98849.25
2024-02-06T12:08:02.753Z,98840.31
2024-02-06T12:10:38.009Z,98874.50
2024-02-06T12:13:12.577Z,98877.13
2024-02-06T12:15:45.656Z,98846.31
2024-02-06T12:18:18.024Z,98812.31
2024-02-06T12:20:51.065Z,98841.47
2024-02-06T12:23:23.807Z,98840.59
2024-02-06T12:25:56.670Z,98799.94
2024-02-06T12:28:28.739Z,98826.00
2024-02-06T12:31:02.298Z,98829.31
2024-02-06T12:33:37.139Z,98829.94
2024-02-06T12:36:11.128Z,98833.25
2024-02-06T12:38:43.202Z,98797.75
2024-02-06T12:41:16.542Z,98826.34
2024-02-06T12:43:53.830Z,98790.59
2024-02-06T12:46:26.760Z,98808.78
2024-02-06T12:48:59.959Z,98810.03
2024-02-06T12:51:33.196Z,98812.78
2024-02-06T12:54:05.633Z,98794.03
2024-02-06T12:56:38.410Z,98800.97
2024-02-06T12:59:20.425Z,98799.19
2024-02-06T13:02:08.400Z,98753.50
2024-02-06T13:04:41.361Z,98787.34
2024-02-06T13:07:21.866Z,98769.72
2024-02-06T13:10:07.186Z,98783.06
2024-02-06T13:12:44.582Z,98785.22
2024-02-06T13:15:19.003Z,98782.75
2024-02-06T13:17:52.534Z,98775.50
2024-02-06T13:20:24.983Z,98772.69
2024-02-06T13:23:08.404Z,98767.91
2024-02-06T13:25:41.953Z,98757.69
2024-02-06T13:28:14.209Z,98755.06
2024-02-06T13:30:46.918Z,98765.91
2024-02-06T13:33:19.078Z,98753.34
2024-02-06T13:35:51.987Z,98760.63
2024-02-06T13:38:24.550Z,98772.22
2024-02-06T13:40:57.249Z,98733.66
2024-02-06T13:43:30.095Z,98756.28
2024-02-06T13:46:03.456Z,98738.63
2024-02-06T13:48:36.318Z,98738.63
2024-02-06T13:51:11.032Z,98731.03
2024-02-06T13:53:43.140Z,98714.28
2024-02-06T13:56:17.175Z,98729.66
2024-02-06T13:58:49.479Z,98717.16
2024-02-06T14:01:25.392Z,98725.66
2024-02-06T14:03:57.965Z,98726.88
2024-02-06T14:06:30.794Z,98720.19
2024-02-06T14:09:05.634Z,98719.13
2024-02-06T14:11:39.292Z,98714.81
2024-02-06T14:14:11.776Z,98733.53
2024-02-06T14:16:45.188Z,98721.44
2024-02-06T14:19:17.400Z,98716.19
2024-02-06T14:21:50.373Z,98705.19
2024-02-06T14:24:24.652Z,98727.03
2024-02-06T14:26:58.885Z,98711.06
2024-02-06T14:29:31.355Z,98718.19
2024-02-06T14:32:04.151Z,98693.06
2024-02-06T14:34:36.810Z,98717.25
2024-02-06T14:37:09.752Z,98679.81
2024-02-06T14:39:43.092Z,98703.97
2024-02-06T14:42:15.770Z,98693.28
2024-02-06T14:44:52.240Z,98691.25
2024-02-06T14:47:25.483Z,98670.84
2024-02-06T14:49:58.014Z,98694.53
2024-02-06T14:52:38.246Z,98664.16
2024-02-06T14:55:10.987Z,98664.03
2024-02-06T14:57:43.778Z,98665.59
2024-02-06T15:00:17.040Z,98692.31
2024-02-06T15:02:50.408Z,98685.47
2024-02-06T15:06:20.191Z,98700.84
2024-02-06T15:08:56.082Z,98673.13
2024-02-06T15:11:28.864Z,98686.47
2024-02-06T15:14:01.384Z,98658.00
2024-02-06T15:16:33.624Z,98665.88
2024-02-06T15:19:06.640Z,98653.34
2024-02-06T15:21:40.293Z,98671.16
2024-02-06T15:24:12.996Z,98631.69
2024-02-06T15:26:45.417Z,98674.25
2024-02-06T15:29:18.288Z,98647.19
2024-02-06T15:31:50.912Z,98667.16
2024-02-06T15:34:23.780Z,98662.19
2024-02-06T15:36:57.209Z,98663.59
2024-02-06T15:39:30.065Z,98661.69
2024-02-06T15:42:02.167Z,98637.75
2024-02-06T15:44:36.133Z,98625.19
2024-02-06T15:47:08.458Z,98656.94
2024-02-06T15:49:41.349Z,98644.66
2024-02-06T15:52:14.051Z,98634.63
2024-02-06T15:54:47.358Z,98642.53
2024-02-06T15:57:22.620Z,98645.75
2024-02-06T15:59:55.643Z,98641.00
2024-02-06T16:02:30.364Z,98624.75
2024-02-06T16:05:06.013Z,98634.19
2024-02-06T16:07:38.304Z,98599.03
2024-02-06T16:10:11.189Z,98622.56
2024-02-06T16:12:50.109Z,98622.41
2024-02-06T16:15:27.604Z,98631.72
2024-02-06T16:17:59.788Z,98600.13
2024-02-06T16:20:32.811Z,98615.75
2024-02-06T16:23:05.208Z,98605.72
2024-02-06T16:25:38.464Z,98606.63
2024-02-06T16:28:11.674Z,98599.97
2024-02-06T16:30:45.061Z,98627.03
2024-02-06T16:33:17.804Z,98594.56
2024-02-06T16:35:50.671Z,98601.22
2024-02-06T16:38:23.764Z,98607.41
2024-02-06T16:40:56.904Z,98620.84
2024-02-06T16:43:29.335Z,98614.38
2024-02-06T16:46:02.124Z,98606.50
2024-02-06T16:48:34.742Z,98628.72
2024-02-06T16:51:15.380Z,98591.75
2024-02-06T16:53:48.952Z,98608.63
2024-02-06T16:56:21.367Z,98606.59
2024-02-06T16:58:54.101Z,98638.31
2024-02-06T17:01:26.169Z,98628.22
2024-02-06T17:03:58.965Z,98627.31
2024-02-06T17:06:30.994Z,98618.06
2024-02-06T17:09:04.282Z,98634.31
2024-02-06T17:11:36.366Z,98631.50
2024-02-06T17:14:08.707Z,98623.44
2024-02-06T17:16:46.115Z,98620.34
2024-02-06T17:19:19.223Z,98612.44
2024-02-06T17:21:52.597Z,98626.81
2024-02-06T17:24:25.305Z,98620.50
2024-02-06T17:26:57.819Z,98632.84
2024-02-06T17:29:31.767Z,98627.31
2024-02-06T17:32:04.353Z,98622.34
2024-02-06T17:34:37.277Z,98618.47
2024-02-06T17:37:10.015Z,98635.97
2024-02-06T17:39:43.010Z,98601.44
2024-02-06T17:42:14.945Z,98631.59
2024-02-06T17:44:47.685Z,98601.78
2024-02-06T17:47:20.212Z,98624.03
2024-02-06T17:49:53.123Z,98630.06
2024-02-06T17:52:25.256Z,98628.38
2024-02-06T17:54:58.275Z,98626.19
2024-02-06T17:57:31.868Z,98608.25
2024-02-06T18:00:07.497Z,98607.63
2024-02-06T18:02:51.438Z,98618.47
2024-02-06T18:05:28.185Z,98608.13
2024-02-06T18:08:01.685Z,98604.66
2024-02-06T18:10:34.100Z,98577.16
2024-02-06T18:13:06.149Z,98569.56
2024-02-06T18:15:39.427Z,98602.81
2024-02-06T18:18:12.037Z,98602.19
2024-02-06T18:20:45.079Z,98588.56
2024-02-06T18:23:17.006Z,98575.59
2024-02-06T18:25:49.995Z,98560.72
2024-02-06T18:28:22.023Z,98567.50
2024-02-06T18:30:56.469Z,98576.22
2024-02-06T18:33:28.923Z,98571.53
2024-02-06T18:36:01.953Z,98554.84
2024-02-06T18:38:33.861Z,98576.34
2024-02-06T18:41:07.303Z,98545.25
2024-02-06T18:43:40.587Z,98561.00
2024-02-06T18:46:13.704Z,98564.31
2024-02-06T18:48:46.654Z,98550.38
2024-02-06T18:51:20.942Z,98549.44
2024-02-06T18:53:55.132Z,98558.53
2024-02-06T18:56:28.306Z,98527.09
2024-02-06T18:59:00.260Z,98562.53
2024-02-06T19:01:33.267Z,98520.16
2024-02-06T19:04:05.812Z,98575.25
2024-02-06T19:06:38.593Z,98560.50
2024-02-06T19:09:12.768Z,98569.03
2024-02-06T19:11:45.985Z,98557.28
2024-02-06T19:14:17.993Z,98544.75
2024-02-06T19:16:51.204Z,98562.72
2024-02-06T19:19:23.300Z,98552.72
2024-02-06T19:21:55.982Z,98539.03
2024-02-06T19:24:29.860Z,98556.69
2024-02-06T19:27:02.667Z,98532.69
2024-02-06T19:29:34.808Z,98545.03
2024-02-06T19:32:08.090Z,98549.22
2024-02-06T19:37:12.876Z,98556.81
2024-02-06T19:39:45.158Z,98559.78
2024-02-06T19:42:19.188Z,98557.16
2024-02-06T19:44:51.886Z,98578.97
2024-02-06T19:47:24.760Z,98578.50
2024-02-06T19:49:57.345Z,98577.88
2024-02-06T19:52:30.090Z,98568.00
2024-02-06T19:55:03.422Z,98556.53
2024-02-06T19:57:39.890Z,98534.00
2024-02-06T20:00:12.440Z,98557.50
2024-02-06T20:02:46.234Z,98545.16
2024-02-06T20:05:19.511Z,98543.44
2024-02-06T20:07:51.929Z,98554.72
2024-02-06T20:10:24.636Z,98556.94
2024-02-06T20:12:56.579Z,98555.78
2024-02-06T20:15:29.115Z,98535.78
2024-02-06T20:18:02.145Z,98540.84
2024-02-06T20:20:36.827Z,98538.69
2024-02-06T20:23:09.515Z,98546.56
2024-02-06T20:25:41.995Z,98547.53
2024-02-06T20:28:14.644Z,98548.63
2024-02-06T20:30:46.742Z,98530.19
2024-02-06T20:33:20.735Z,98549.06
2024-02-06T20:35:53.173Z,98563.78
2024-02-06T20:38:26.958Z,98556.38
2024-02-06T20:40:59.106Z,98557.44
2024-02-06T20:43:31.746Z,98554.94
2024-02-06T20:46:05.701Z,98539.63
2024-02-06T20:48:39.335Z,98554.66
2024-02-06T20:51:12.148Z,98564.25
2024-02-06T20:53:46.505Z,98565.31
2024-02-06T20:56:23.074Z,98553.75
2024-02-06T20:58:58.849Z,98540.56
2024-02-06T21:01:33.828Z,98557.59
2024-02-06T21:04:07.601Z,98554.16
2024-02-06T21:06:40.351Z,98517.69
2024-02-06T21:09:15.998Z,98545.38
2024-02-06T21:11:48.740Z,98523.28
2024-02-06T21:14:20.839Z,98535.94
2024-02-06T21:16:53.686Z,98539.69
2024-02-06T21:19:25.880Z,98541.81
2024-02-06T21:21:59.619Z,98493.59
2024-02-06T21:24:32.864Z,98534.13
2024-02-06T21:27:06.401Z,98520.19
2024-02-06T21:29:39.964Z,98512.63
2024-02-06T21:32:14.626Z,98516.81
2024-02-06T21:34:47.170Z,98523.28
2024-02-06T21:37:19.649Z,98508.91
2024-02-06T21:39:56.355Z,98504.91
2024-02-06T21:42:28.873Z,98512.78
2024-02-06T21:45:05.383Z,98516.31
2024-02-06T21:47:41.807Z,98505.97
2024-02-06T21:50:15.204Z,98525.63
2024-02-06T21:52:48.344Z,98492.38
2024-02-06T21:55:20.812Z,98508.47
2024-02-06T21:57:53.980Z,98476.78
2024-02-06T22:00:25.906Z,98473.69
2024-02-06T22:03:00.126Z,98491.97
2024-02-06T22:05:34.363Z,98484.50
2024-02-06T22:08:07.222Z,98486.53
2024-02-06T22:10:39.802Z,98483.44
2024-02-06T22:13:11.862Z,98469.38
2024-02-06T22:15:44.431Z,98459.94
2024-02-06T22:18:16.960Z,98455.94
2024-02-06T22:20:49.970Z,98468.75
2024-02-06T22:23:21.909Z,98443.25
2024-02-06T22:25:54.511Z,98445.88
2024-02-06T22:28:27.384Z,98459.31
2024-02-06T22:30:59.385Z,98422.38
2024-02-06T22:33:31.953Z,98440.44
2024-02-06T22:36:04.417Z,98433.66
2024-02-06T22:38:37.150Z,98431.34
2024-02-06T22:41:09.620Z,98439.09
2024-02-06T22:43:42.271Z,98438.13
2024-02-06T22:46:14.235Z,98412.63
2024-02-06T22:48:46.807Z,98413.09
2024-02-06T22:55:08.145Z,98434.09
2024-02-06T22:57:40.646Z,98440.59
2024-02-06T23:00:20.604Z,98439.66
2024-02-06T23:02:54.207Z,98444.44
2024-02-06T23:05:29.651Z,98429.03
2024-02-06T23:08:02.271Z,98425.31
2024-02-06T23:10:34.338Z,98456.84
2024-02-06T23:13:06.667Z,98446.63
2024-02-06T23:15:39.077Z,98423.91
2024-02-06T23:18:12.348Z,98422.81
2024-02-06T23:20:45.206Z,98427.75
2024-02-06T23:23:17.168Z,98425.09
2024-02-06T23:25:50.068Z,98415.81
2024-02-06T23:28:22.198Z,98380.00
2024-02-06T23:30:54.644Z,98424.34
2024-02-06T23:33:26.705Z,98411.03
2024-02-06T23:35:59.217Z,98412.91
2024-02-06T23:38:32.490Z,98391.56
2024-02-06T23:41:04.693Z,98401.44
2024-02-06T23:43:37.112Z,98417.06
2024-02-06T23:46:09.123Z,98427.09
2024-02-06T23:48:41.561Z,98397.75
2024-02-06T23:51:13.923Z,98387.09
2024-02-06T23:53:45.864Z,98414.91
2024-02-06T23:56:18.392Z,98399.75
2024-02-06T23:58:50.455Z,98399.41
